Time;durP1;ratioP1;P1;durP2;ratioP2;P2;SDS_P1;SDS_P2;PMS_P1;PMS_P2;Temp;Humidity;BMP_temperature;BMP_pressure;BME280_temperature;BME280_humidity;BME280_pressure;Samples;Min_cycle;Max_cycle;Signal;HPM_P1;HPM_P2
2022/05/12 00:02:01;;;;;;;;;;;;;;;;;;5003286;28;20339;-66
2022/05/12 00:04:27;;;;;;;;;;;;;;;;;;5004541;28;19924;-67
2022/05/12 00:06:53;;;;;;;;;;;;;;;;;;5007832;28;19998;-67
2022/05/12 00:09:19;;;;;;;;;;;;;;;;;;5023061;28;19921;-67
2022/05/12 00:11:45;;;;;;;;;;;;;;;;;;5007820;28;19943;-68
2022/05/12 00:14:11;;;;;;;;;;;;;;;;;;5025419;28;20259;-68
2022/05/12 00:16:37;;;;;;;;;;;;;;;;;;5008217;28;19917;-68
2022/05/12 00:19:03;;;;;;;;;;;;;;;;;;5021334;28;20323;-68
2022/05/12 00:21:29;;;;;;;;;;;;;;;;;;5023261;28;19927;-68
2022/05/12 00:23:58;;;;;;;;;;;;;;;;;;5019955;28;19916;-68
2022/05/12 00:26:24;;;;;;;;;;;;;;;;;;5012264;28;20453;-68
2022/05/12 00:28:50;;;;;;;;;;;;;;;;;;5025644;28;19925;-68
2022/05/12 00:31:16;;;;;;;;;;;;;;;;;;5031288;28;19932;-68
2022/05/12 00:33:42;;;;;;;;;;;;;;;;;;5012123;28;19927;-67
2022/05/12 00:36:08;;;;;;;;;;;;;;;;;;5025841;28;19924;-68
2022/05/12 00:38:34;;;;;;;;;;;;;;;;;;5031976;28;20303;-68
2022/05/12 00:41:00;;;;;;;;;;;;;;;;;;5007815;28;19923;-69
2022/05/12 00:43:26;;;;;;;;;;;;;;;;;;5031204;28;19916;-68
2022/05/12 00:45:52;;;;;;;;;;;;;;;;;;5029699;28;19928;-68
2022/05/12 00:48:18;;;;;;;;;;;;;;;;;;5028362;28;20760;-68
2022/05/12 00:50:44;;;;;;;;;;;;;;;;;;5022473;28;19945;-68
2022/05/12 00:53:10;;;;;;;;;;;;;;;;;;5016392;28;20218;-67
2022/05/12 00:55:35;;;;;;;;;;;;;;;;;;5026898;28;19924;-67
2022/05/12 00:58:02;;;;;;;;;;;;;;;;;;5026799;28;21554;-68
2022/05/12 01:00:28;;;;;;;;;;;;;;;;;;5028253;28;20373;-68
2022/05/12 01:02:54;;;;;;;;;;;;;;;;;;5006650;28;20272;-67
2022/05/12 01:05:19;;;;;;;;;;;;;;;;;;5012600;28;19989;-68
2022/05/12 01:07:46;;;;;;;;;;;;;;;;;;5030113;28;19924;-68
2022/05/12 01:10:11;;;;;;;;;;;;;;;;;;5026446;28;20337;-68
2022/05/12 01:12:38;;;;;;;;;;;;;;;;;;5031338;28;19923;-68
2022/05/12 01:15:04;;;;;;;;;;;;;;;;;;5005998;28;19916;-68
2022/05/12 01:17:30;;;;;;;;;;;;;;;;;;5029490;28;20781;-68
2022/05/12 01:19:56;;;;;;;;;;;;;;;;;;5022976;28;19917;-67
2022/05/12 01:22:22;;;;;;;;;;;;;;;;;;5014630;28;20371;-67
2022/05/12 01:24:48;;;;;;;;;;;;;;;;;;5028591;28;19990;-67
2022/05/12 01:27:20;;;;;;;;;;;;;;;;;;5012032;28;19927;-66
2022/05/12 01:29:46;;;;;;;;;;;;;;;;;;5023991;28;20398;-67
2022/05/12 01:32:12;;;;;;;;;;;;;;;;;;5028595;28;19916;-67
2022/05/12 01:34:38;;;;;;;;;;;;;;;;;;5028685;28;19983;-67
2022/05/12 01:37:04;;;;;;;;;;;;;;;;;;5022682;28;19925;-67
2022/05/12 01:39:30;;;;;;;;;;;;;;;;;;5027019;28;20289;-67
2022/05/12 01:41:56;;;;;;;;;;;;;;;;;;5026046;28;19917;-66
2022/05/12 01:44:22;;;;;;;;;;;;;;;;;;5013778;28;19923;-67
2022/05/12 01:46:48;;;;;;;;;;;;;;;;;;5024639;28;19917;-66
2022/05/12 01:49:14;;;;;;;;;;;;;;;;;;5031682;28;19917;-67
2022/05/12 01:51:40;;;;;;;;;;;;;;;;;;5026032;28;20294;-67
2022/05/12 01:54:06;;;;;;;;;;;;;;;;;;5028154;28;20567;-66
2022/05/12 01:56:32;;;;;;;;;;;;;;;;;;5025386;28;20167;-66
2022/05/12 01:58:58;;;;;;;;;;;;;;;;;;5010413;28;19935;-66
2022/05/12 02:01:24;;;;;;;;;;;;;;;;;;5014649;28;19919;-67
2022/05/12 02:03:50;;;;;;;;;;;;;;;;;;5026421;28;20015;-67
2022/05/12 02:06:16;;;;;;;;;;;;;;;;;;5030274;28;19917;-67
2022/05/12 02:08:42;;;;;;;;;;;;;;;;;;5012555;28;20156;-66
2022/05/12 02:11:08;;;;;;;;;;;;;;;;;;5030075;28;19922;-66
2022/05/12 02:13:34;;;;;;;;;;;;;;;;;;5009536;28;20282;-66
2022/05/12 02:16:00;;;;;;;;;;;;;;;;;;5021349;28;19917;-66
2022/05/12 02:18:27;;;;;;;;;;;;;;;;;;5042505;28;20100;-66
2022/05/12 02:20:53;;;;;;;;;;;;;;;;;;5021329;28;19974;-66
2022/05/12 02:23:19;;;;;;;;;;;;;;;;;;5028850;28;20493;-66
2022/05/12 02:25:45;;;;;;;;;;;;;;;;;;5024518;28;19928;-66
2022/05/12 02:28:11;;;;;;;;;;;;;;;;;;5027817;28;20286;-67
2022/05/12 02:30:37;;;;;;;;;;;;;;;;;;5026280;28;19917;-67
2022/05/12 02:33:03;;;;;;;;;;;;;;;;;;5019855;28;20383;-66
2022/05/12 02:35:29;;;;;;;;;;;;;;;;;;5023627;28;19920;-66
2022/05/12 02:37:55;;;;;;;;;;;;;;;;;;5020605;28;20477;-66
2022/05/12 02:40:21;;;;;;;;;;;;;;;;;;5015349;28;19927;-66
2022/05/12 02:42:47;;;;;;;;;;;;;;;;;;5025418;28;19969;-66
2022/05/12 02:45:13;;;;;;;;;;;;;;;;;;5026606;28;20042;-67
2022/05/12 02:47:39;;;;;;;;;;;;;;;;;;5007234;28;19917;-67
2022/05/12 02:50:05;;;;;;;;;;;;;;;;;;5038848;28;20366;-67
2022/05/12 02:52:31;;;;;;;;;;;;;;;;;;5027370;28;19923;-67
2022/05/12 02:54:57;;;;;;;;;;;;;;;;;;5017519;28;21040;-67
2022/05/12 02:57:22;;;;;;;;;;;;;;;;;;5024786;28;19960;-66
2022/05/12 02:59:48;;;;;;;;;;;;;;;;;;5006042;28;19917;-66
2022/05/12 03:02:15;;;;;;;;;;;;;;;;;;5028725;28;19917;-67
2022/05/12 03:04:41;;;;;;;;;;;;;;;;;;5024400;28;20331;-67
2022/05/12 03:07:07;;;;;;;;;;;;;;;;;;5026953;28;19966;-67
2022/05/12 03:09:33;;;;;;;;;;;;;;;;;;5030124;28;20023;-66
2022/05/12 03:11:59;;;;;;;;;;;;;;;;;;5022635;28;20071;-67
2022/05/12 03:14:25;;;;;;;;;;;;;;;;;;5025221;28;19921;-67
2022/05/12 03:16:53;;;;;;;;;;;;;;;;;;5008804;28;19979;-66
2022/05/12 03:19:19;;;;;;;;;;;;;;;;;;5028528;28;20241;-67
2022/05/12 03:21:46;;;;;;;;;;;;;;;;;;5006675;28;21766;-67
2022/05/12 03:24:12;;;;;;;;;;;;;;;;;;5031377;28;19924;-67
2022/05/12 03:26:38;;;;;;;;;;;;;;;;;;5011687;28;20255;-67
2022/05/12 03:29:04;;;;;;;;;;;;;;;;;;5019600;28;19935;-66
2022/05/12 03:31:30;;;;;;;;;;;;;;;;;;5020937;28;20257;-66
2022/05/12 03:33:56;;;;;;;;;;;;;;;;;;5000107;28;19944;-67
2022/05/12 03:36:22;;;;;;;;;;;;;;;;;;5003760;28;20582;-67
2022/05/12 03:38:48;;;;;;;;;;;;;;;;;;5016559;28;20015;-68
2022/05/12 03:41:14;;;;;;;;;;;;;;;;;;5022655;28;19923;-67
2022/05/12 03:46:25;;;;;;;;;;;;;;;;;;5021586;28;19923;-67
2022/05/12 03:48:51;;;;;;;;;;;;;;;;;;5000223;28;19924;-67
2022/05/12 03:51:17;;;;;;;;;;;;;;;;;;5022190;28;19951;-65
2022/05/12 03:53:43;;;;;;;;;;;;;;;;;;5018619;28;20118;-66
2022/05/12 03:56:09;;;;;;;;;;;;;;;;;;5024577;28;20699;-68
2022/05/12 03:58:35;;;;;;;;;;;;;;;;;;5023276;28;20390;-70
2022/05/12 04:01:01;;;;;;;;;;;;;;;;;;5007209;28;19921;-68
2022/05/12 04:03:27;;;;;;;;;;;;;;;;;;5027510;28;20473;-68
2022/05/12 04:05:54;;;;;;;;;;;;;;;;;;5022392;28;19917;-68
2022/05/12 04:08:21;;;;;;;;;;;;;;;;;;5026703;28;20373;-68
2022/05/12 04:10:48;;;;;;;;;;;;;;;;;;5021887;28;19922;-67
2022/05/12 04:13:16;;;;;;;;;;;;;;;;;;5030122;28;19998;-69
2022/05/12 04:15:42;;;;;;;;;;;;;;;;;;5027755;28;20241;-67
2022/05/12 04:18:08;;;;;;;;;;;;;;;;;;5049831;28;20549;-67
2022/05/12 04:20:34;;;;;;;;;;;;;;;;;;5029647;28;19913;-67
2022/05/12 04:23:00;;;;;;;;;;;;;;;;;;5007726;28;19924;-67
2022/05/12 04:25:26;;;;;;;;;;;;;;;;;;5029910;28;19912;-67
2022/05/12 04:27:52;;;;;;;;;;;;;;;;;;5025018;28;20290;-68
2022/05/12 04:30:18;;;;;;;;;;;;;;;;;;5025847;28;19924;-67
2022/05/12 04:32:44;;;;;;;;;;;;;;;;;;5028202;28;19971;-68
2022/05/12 04:35:11;;;;;;;;;;;;;;;;;;5024874;28;19928;-68
2022/05/12 04:37:40;;;;;;;;;;;;;;;;;;5032239;28;19917;-67
2022/05/12 04:40:06;;;;;;;;;;;;;;;;;;5012982;28;19998;-68
2022/05/12 04:42:32;;;;;;;;;;;;;;;;;;5043192;28;19925;-67
2022/05/12 04:44:58;;;;;;;;;;;;;;;;;;5024501;28;20466;-68
2022/05/12 04:47:24;;;;;;;;;;;;;;;;;;5029321;28;19923;-67
2022/05/12 04:49:50;;;;;;;;;;;;;;;;;;5027720;28;19916;-67
2022/05/12 04:52:16;;;;;;;;;;;;;;;;;;5037188;28;19969;-68
2022/05/12 04:54:42;;;;;;;;;;;;;;;;;;5029268;28;19921;-67
2022/05/12 04:57:08;;;;;;;;;;;;;;;;;;5030783;28;19920;-68
2022/05/12 04:59:34;;;;;;;;;;;;;;;;;;5031358;28;20345;-67
2022/05/12 05:02:00;;;;;;;;;;;;;;;;;;5022321;28;19916;-68
2022/05/12 05:04:26;;;;;;;;;;;;;;;;;;5024767;28;20149;-67
2022/05/12 05:06:52;;;;;;;;;;;;;;;;;;5021464;28;19920;-68
2022/05/12 05:09:18;;;;;;;;;;;;;;;;;;5026946;28;19925;-68
2022/05/12 05:11:44;;;;;;;;;;;;;;;;;;5025736;28;20389;-68
2022/05/12 05:14:10;;;;;;;;;;;;;;;;;;5026516;28;19925;-67
2022/05/12 05:16:36;;;;;;;;;;;;;;;;;;5030883;28;20188;-68
2022/05/12 05:19:02;;;;;;;;;;;;;;;;;;5023189;28;20110;-67
2022/05/12 05:21:31;;;;;;;;;;;;;;;;;;5032329;28;20048;-68
2022/05/12 05:23:57;;;;;;;;;;;;;;;;;;5010164;28;19938;-67
2022/05/12 05:26:23;;;;;;;;;;;;;;;;;;5007864;28;19924;-68
2022/05/12 05:28:49;;;;;;;;;;;;;;;;;;5033552;28;20502;-68
2022/05/12 05:31:16;;;;;;;;;;;;;;;;;;5012755;28;20003;-67
2022/05/12 05:33:42;;;;;;;;;;;;;;;;;;5006410;28;19925;-67
2022/05/12 05:36:08;;;;;;;;;;;;;;;;;;5025315;28;19927;-67
2022/05/12 05:38:34;;;;;;;;;;;;;;;;;;5031525;28;19921;-67
2022/05/12 05:41:00;;;;;;;;;;;;;;;;;;5026336;28;19917;-67
2022/05/12 05:43:26;;;;;;;;;;;;;;;;;;5033894;28;20069;-67
2022/05/12 05:45:52;;;;;;;;;;;;;;;;;;5031722;28;20353;-67
2022/05/12 05:48:18;;;;;;;;;;;;;;;;;;5033941;28;20052;-67
2022/05/12 05:53:29;;;;;;;;;;;;;;;;;;5028238;28;19958;-67
2022/05/12 05:55:55;;;;;;;;;;;;;;;;;;5005416;28;19921;-67
2022/05/12 05:58:21;;;;;;;;;;;;;;;;;;5028167;28;20378;-67
2022/05/12 06:00:47;;;;;;;;;;;;;;;;;;5009288;28;21144;-67
2022/05/12 06:03:13;;;;;;;;;;;;;;;;;;5025428;28;19920;-67
2022/05/12 06:05:39;;;;;;;;;;;;;;;;;;5030243;28;19916;-67
2022/05/12 06:08:05;;;;;;;;;;;;;;;;;;5022110;28;19936;-68
2022/05/12 06:10:31;;;;;;;;;;;;;;;;;;5013174;28;19924;-69
2022/05/12 06:12:57;;;;;;;;;;;;;;;;;;5024043;28;19920;-67
2022/05/12 06:15:23;;;;;;;;;;;;;;;;;;5011712;28;19917;-67
2022/05/12 06:17:49;;;;;;;;;;;;;;;;;;5008201;28;20296;-68
2022/05/12 06:20:16;;;;;;;;;;;;;;;;;;5016999;28;19917;-69
2022/05/12 06:22:44;;;;;;;;;;;;;;;;;;5007625;28;20428;-67
2022/05/12 06:25:10;;;;;;;;;;;;;;;;;;5018951;28;20238;-67
2022/05/12 06:27:36;;;;;;;;;;;;;;;;;;5029035;28;20377;-67
2022/05/12 06:30:02;;;;;;;;;;;;;;;;;;5029426;28;21904;-67
2022/05/12 06:32:29;;;;;;;;;;;;;;;;;;5015000;28;19917;-68
2022/05/12 06:34:55;;;;;;;;;;;;;;;;;;5022571;28;19920;-68
2022/05/12 06:37:21;;;;;;;;;;;;;;;;;;5027036;28;19917;-67
2022/05/12 06:39:47;;;;;;;;;;;;;;;;;;5023913;28;19917;-68
2022/05/12 06:42:13;;;;;;;;;;;;;;;;;;5010674;28;20955;-68
2022/05/12 06:44:39;;;;;;;;;;;;;;;;;;5028290;28;19939;-68
2022/05/12 06:47:05;;;;;;;;;;;;;;;;;;5008466;28;19917;-68
2022/05/12 06:49:31;;;;;;;;;;;;;;;;;;5026550;28;19942;-68
2022/05/12 06:51:57;;;;;;;;;;;;;;;;;;5037999;28;19924;-68
2022/05/12 06:54:23;;;;;;;;;;;;;;;;;;5011164;28;20401;-69
2022/05/12 06:56:49;;;;;;;;;;;;;;;;;;5023347;28;19928;-67
2022/05/12 06:59:15;;;;;;;;;;;;;;;;;;5030064;28;20394;-68
2022/05/12 07:01:41;;;;;;;;;;;;;;;;;;5009112;28;19917;-67
2022/05/12 07:04:07;;;;;;;;;;;;;;;;;;5005922;28;19917;-67
2022/05/12 07:06:33;;;;;;;;;;;;;;;;;;5031378;28;19924;-67
2022/05/12 07:08:59;;;;;;;;;;;;;;;;;;5037167;28;20368;-67
2022/05/12 07:11:25;;;;;;;;;;;;;;;;;;5025807;28;19939;-67
2022/05/12 07:13:51;;;;;;;;;;;;;;;;;;5007982;28;20022;-67
2022/05/12 07:16:17;;;;;;;;;;;;;;;;;;5025650;28;19925;-68
2022/05/12 07:18:43;;;;;;;;;;;;;;;;;;5021627;28;19917;-67
2022/05/12 07:26:42;;;;;;;;;;;;;;;;;;5026346;28;20024;-66
2022/05/12 07:29:08;;;;;;;;;;;;;;;;;;5024364;28;20373;-66
2022/05/12 07:31:34;;;;;;;;;;;;;;;;;;5023702;28;19920;-66
2022/05/12 07:34:00;;;;;;;;;;;;;;;;;;5023030;28;19920;-68
2022/05/12 07:36:26;;;;;;;;;;;;;;;;;;5008774;28;19917;-66
2022/05/12 07:38:52;;;;;;;;;;;;;;;;;;5022640;28;19920;-68
2022/05/12 07:41:18;;;;;;;;;;;;;;;;;;5032817;28;19924;-67
2022/05/12 07:43:44;;;;;;;;;;;;;;;;;;5005420;28;19956;-67
2022/05/12 07:46:10;;;;;;;;;;;;;;;;;;5015115;28;19920;-66
2022/05/12 07:48:36;;;;;;;;;;;;;;;;;;5028796;28;20032;-66
2022/05/12 07:51:02;;;;;;;;;;;;;;;;;;5007713;28;20369;-67
2022/05/12 07:53:28;;;;;;;;;;;;;;;;;;5028061;28;20031;-67
2022/05/12 07:55:54;;;;;;;;;;;;;;;;;;5018011;28;20091;-67
2022/05/12 07:58:20;;;;;;;;;;;;;;;;;;5006588;28;20099;-67
2022/05/12 08:00:46;;;;;;;;;;;;;;;;;;5024182;28;19921;-67
2022/05/12 08:03:12;;;;;;;;;;;;;;;;;;5023639;28;19924;-67
2022/05/12 08:05:38;;;;;;;;;;;;;;;;;;5025085;28;20685;-67
2022/05/12 08:08:04;;;;;;;;;;;;;;;;;;5022901;28;19930;-67
2022/05/12 08:10:30;;;;;;;;;;;;;;;;;;5011528;28;19923;-67
2022/05/12 08:12:56;;;;;;;;;;;;;;;;;;5022478;28;19917;-67
2022/05/12 08:15:25;;;;;;;;;;;;;;;;;;5027956;28;19959;-66
2022/05/12 08:17:51;;;;;;;;;;;;;;;;;;4999181;28;20279;-66
2022/05/12 08:20:16;;;;;;;;;;;;;;;;;;5013750;28;20353;-67
2022/05/12 08:22:42;;;;;;;;;;;;;;;;;;5024449;28;20038;-67
2022/05/12 08:25:09;;;;;;;;;;;;;;;;;;5004970;28;19956;-67
2022/05/12 08:27:35;;;;;;;;;;;;;;;;;;5026878;28;20552;-66
2022/05/12 08:30:00;;;;;;;;;;;;;;;;;;5026763;28;19917;-66
2022/05/12 08:32:26;;;;;;;;;;;;;;;;;;5004877;28;19920;-67
2022/05/12 08:34:52;;;;;;;;;;;;;;;;;;5020274;28;19927;-67
2022/05/12 08:37:18;;;;;;;;;;;;;;;;;;5030505;28;19917;-67
2022/05/12 08:39:45;;;;;;;;;;;;;;;;;;5028461;28;20447;-67
2022/05/12 08:42:11;;;;;;;;;;;;;;;;;;5024692;28;19958;-66
2022/05/12 08:44:37;;;;;;;;;;;;;;;;;;5029355;28;20053;-67
2022/05/12 08:47:03;;;;;;;;;;;;;;;;;;5020747;28;20396;-67
2022/05/12 08:49:29;;;;;;;;;;;;;;;;;;5030490;28;19986;-67
2022/05/12 08:51:55;;;;;;;;;;;;;;;;;;5025928;28;20444;-66
2022/05/12 08:54:22;;;;;;;;;;;;;;;;;;5030113;28;19920;-67
2022/05/12 08:56:48;;;;;;;;;;;;;;;;;;5025663;28;19920;-66
2022/05/12 08:59:14;;;;;;;;;;;;;;;;;;5033561;28;20284;-67
2022/05/12 09:01:40;;;;;;;;;;;;;;;;;;5029710;28;19939;-67
2022/05/12 09:04:06;;;;;;;;;;;;;;;;;;5023969;28;19913;-66
2022/05/12 09:06:32;;;;;;;;;;;;;;;;;;5030764;28;19983;-68
2022/05/12 09:08:58;;;;;;;;;;;;;;;;;;5026804;28;20340;-69
2022/05/12 09:11:24;;;;;;;;;;;;;;;;;;5028575;28;20089;-66
2022/05/12 09:13:50;;;;;;;;;;;;;;;;;;5023947;28;20365;-66
2022/05/12 09:16:16;;;;;;;;;;;;;;;;;;5031359;28;20109;-67
2022/05/12 09:18:42;;;;;;;;;;;;;;;;;;5030766;28;19913;-67
2022/05/12 09:21:08;;;;;;;;;;;;;;;;;;5010574;28;20334;-67
2022/05/12 09:23:35;;;;;;;;;;;;;;;;;;5006431;28;19917;-67
2022/05/12 09:26:01;;;;;;;;;;;;;;;;;;5025623;28;20447;-67
2022/05/12 09:28:27;;;;;;;;;;;;;;;;;;5030427;28;20724;-67
2022/05/12 09:30:55;;;;;;;;;;;;;;;;;;5025547;28;20381;-67
2022/05/12 09:33:21;;;;;;;;;;;;;;;;;;5031965;28;19920;-66
2022/05/12 09:35:47;;;;;;;;;;;;;;;;;;5022581;28;19917;-68
2022/05/12 09:38:13;;;;;;;;;;;;;;;;;;5026758;28;20149;-68
2022/05/12 09:40:39;;;;;;;;;;;;;;;;;;5032674;28;21381;-66
2022/05/12 09:43:06;;;;;;;;;;;;;;;;;;5024379;28;20008;-68
2022/05/12 09:45:32;;;;;;;;;;;;;;;;;;5027011;28;20299;-68
2022/05/12 09:47:58;;;;;;;;;;;;;;;;;;5023440;28;19924;-68
2022/05/12 09:50:24;;;;;;;;;;;;;;;;;;5029129;28;19928;-68
2022/05/12 09:52:50;;;;;;;;;;;;;;;;;;5026661;28;20012;-68
2022/05/12 09:55:16;;;;;;;;;;;;;;;;;;5027400;28;20002;-68
2022/05/12 09:57:42;;;;;;;;;;;;;;;;;;5010701;28;20211;-67
2022/05/12 10:00:10;;;;;;;;;;;;;;;;;;5023631;28;20228;-67
2022/05/12 10:08:05;;;;;;;;;;;;;;;;;;5024507;28;19975;-67
2022/05/12 10:10:31;;;;;;;;;;;;;;;;;;5010945;28;20011;-68
2022/05/12 10:12:57;;;;;;;;;;;;;;;;;;5011359;28;19916;-67
2022/05/12 10:15:23;;;;;;;;;;;;;;;;;;5025687;28;19963;-68
2022/05/12 10:17:51;;;;;;;;;;;;;;;;;;5019864;28;20446;-68
2022/05/12 10:20:21;;;;;;;;;;;;;;;;;;5028399;28;19916;-68
2022/05/12 10:22:47;;;;;;;;;;;;;;;;;;5024948;28;20350;-68
2022/05/12 10:25:13;;;;;;;;;;;;;;;;;;5027600;28;20015;-68
2022/05/12 10:27:39;;;;;;;;;;;;;;;;;;5004028;28;19960;-68
2022/05/12 10:30:05;;;;;;;;;;;;;;;;;;5011621;28;19920;-68
2022/05/12 10:32:31;;;;;;;;;;;;;;;;;;5009993;28;19917;-68
2022/05/12 10:34:57;;;;;;;;;;;;;;;;;;5032310;28;20023;-67
2022/05/12 10:37:23;;;;;;;;;;;;;;;;;;5026893;28;20238;-68
2022/05/12 10:39:49;;;;;;;;;;;;;;;;;;5024515;28;20278;-69
2022/05/12 10:42:15;;;;;;;;;;;;;;;;;;5009843;28;19928;-67
2022/05/12 10:44:41;;;;;;;;;;;;;;;;;;5030656;28;19923;-67
2022/05/12 10:47:07;;;;;;;;;;;;;;;;;;5006450;28;19921;-69
2022/05/12 10:49:33;;;;;;;;;;;;;;;;;;5013487;28;19970;-66
2022/05/12 10:51:59;;;;;;;;;;;;;;;;;;5021757;28;19924;-68
2022/05/12 10:54:25;;;;;;;;;;;;;;;;;;5030262;28;19990;-66
2022/05/12 10:56:51;;;;;;;;;;;;;;;;;;5038893;28;19944;-66
2022/05/12 10:59:17;;;;;;;;;;;;;;;;;;5024028;28;19916;-66
2022/05/12 11:01:43;;;;;;;;;;;;;;;;;;5021171;28;19940;-66
2022/05/12 11:04:09;;;;;;;;;;;;;;;;;;5022343;28;19928;-68
2022/05/12 11:06:35;;;;;;;;;;;;;;;;;;5029352;28;19920;-65
2022/05/12 11:09:01;;;;;;;;;;;;;;;;;;5018876;28;19946;-67
2022/05/12 11:11:27;;;;;;;;;;;;;;;;;;5030460;28;19960;-66
2022/05/12 11:13:53;;;;;;;;;;;;;;;;;;5026111;28;19927;-65
2022/05/12 11:16:19;;;;;;;;;;;;;;;;;;5029976;28;19917;-65
2022/05/12 11:18:45;;;;;;;;;;;;;;;;;;5022175;28;20377;-66
2022/05/12 11:21:11;;;;;;;;;;;;;;;;;;5008606;28;19920;-65
2022/05/12 11:23:37;;;;;;;;;;;;;;;;;;5023131;28;20516;-66
2022/05/12 11:26:04;;;;;;;;;;;;;;;;;;5023094;28;20875;-65
2022/05/12 11:31:15;;;;;;;;;;;;;;;;;;4980311;28;20002;-66
2022/05/12 11:33:41;;;;;;;;;;;;;;;;;;5004214;28;20306;-66
2022/05/12 11:36:07;;;;;;;;;;;;;;;;;;5024286;28;20015;-63
2022/05/12 11:38:33;;;;;;;;;;;;;;;;;;5028155;28;20582;-65
2022/05/12 11:40:59;;;;;;;;;;;;;;;;;;5030525;28;19985;-65
2022/05/12 11:46:10;;;;;;;;;;;;;;;;;;5031692;28;19927;-64
2022/05/12 11:48:36;;;;;;;;;;;;;;;;;;5029189;28;19924;-65
2022/05/12 11:51:01;;;;;;;;;;;;;;;;;;5025619;28;20487;-68
2022/05/12 11:53:27;;;;;;;;;;;;;;;;;;5027103;28;19927;-67
2022/05/12 11:55:53;;;;;;;;;;;;;;;;;;5022076;28;20028;-67
2022/05/12 11:58:19;;;;;;;;;;;;;;;;;;5028332;28;19920;-67
2022/05/12 12:00:45;;;;;;;;;;;;;;;;;;5015095;28;19923;-67
2022/05/12 12:03:11;;;;;;;;;;;;;;;;;;5027737;28;19917;-67
2022/05/12 12:05:38;;;;;;;;;;;;;;;;;;5017247;28;19920;-66
2022/05/12 12:08:04;;;;;;;;;;;;;;;;;;4961938;28;21074;-66
2022/05/12 12:10:30;;;;;;;;;;;;;;;;;;4963554;28;20525;-67
2022/05/12 12:12:56;;;;;;;;;;;;;;;;;;4977557;28;20154;-68
2022/05/12 12:15:22;;;;;;;;;;;;;;;;;;4962668;28;20374;-68
2022/05/12 12:17:51;;;;;;;;;;;;;;;;;;4970724;28;20059;-68
2022/05/12 12:20:17;;;;;;;;;;;;;;;;;;4976841;28;20362;-65
2022/05/12 12:22:44;;;;;;;;;;;;;;;;;;4965952;28;19917;-67
2022/05/12 12:25:10;;;;;;;;;;;;;;;;;;4979489;28;20006;-67
2022/05/12 12:27:36;;;;;;;;;;;;;;;;;;4984098;28;19917;-66
2022/05/12 12:30:02;;;;;;;;;;;;;;;;;;4976883;28;20257;-66
2022/05/12 12:32:28;;;;;;;;;;;;;;;;;;4987873;28;19948;-66
2022/05/12 12:34:54;;;;;;;;;;;;;;;;;;4960691;28;20252;-66
2022/05/12 12:37:20;;;;;;;;;;;;;;;;;;4971100;28;21145;-67
2022/05/12 12:39:46;;;;;;;;;;;;;;;;;;4969739;28;19921;-66
2022/05/12 12:42:12;;;;;;;;;;;;;;;;;;4972559;28;19917;-66
2022/05/12 12:44:38;;;;;;;;;;;;;;;;;;5020883;28;19917;-66
2022/05/12 12:47:04;;;;;;;;;;;;;;;;;;5029981;28;20434;-64
2022/05/12 12:49:30;;;;;;;;;;;;;;;;;;5025092;28;19923;-66
2022/05/12 12:51:57;;;;;;;;;;;;;;;;;;5017287;28;20371;-66
2022/05/12 12:57:08;;;;;;;;;;;;;;;;;;5034743;28;19974;-66
2022/05/12 12:59:35;;;;;;;;;;;;;;;;;;5037067;28;19944;-65
2022/05/12 13:02:01;;;;;;;;;;;;;;;;;;5034013;28;19921;-66
2022/05/12 13:04:27;;;;;;;;;;;;;;;;;;5033487;28;20000;-66
2022/05/12 13:06:54;;;;;;;;;;;;;;;;;;5036281;28;19948;-66
2022/05/12 13:09:20;;;;;;;;;;;;;;;;;;5044259;28;19924;-67
2022/05/12 13:11:45;;;;;;;;;;;;;;;;;;5036447;28;19916;-66
2022/05/12 13:14:12;;;;;;;;;;;;;;;;;;5036676;28;20393;-66
2022/05/12 13:16:38;;;;;;;;;;;;;;;;;;5028531;28;20371;-65
2022/05/12 13:19:04;;;;;;;;;;;;;;;;;;5014992;28;19920;-65
2022/05/12 13:21:32;;;;;;;;;;;;;;;;;;5038465;28;20011;-65
2022/05/12 13:23:58;;;;;;;;;;;;;;;;;;5032137;28;20373;-65
2022/05/12 13:26:24;;;;;;;;;;;;;;;;;;5020039;28;19924;-65
2022/05/12 13:28:50;;;;;;;;;;;;;;;;;;5015217;28;19916;-65
2022/05/12 13:31:16;;;;;;;;;;;;;;;;;;5017305;28;19916;-65
2022/05/12 13:33:42;;;;;;;;;;;;;;;;;;5035263;28;19988;-64
2022/05/12 13:36:08;;;;;;;;;;;;;;;;;;5030213;28;19917;-65
2022/05/12 13:38:39;;;;;;;;;;;;;;;;;;5033970;28;20417;-65
2022/05/12 13:41:05;;;;;;;;;;;;;;;;;;5033784;28;19923;-67
2022/05/12 13:43:31;;;;;;;;;;;;;;;;;;5031772;28;19916;-66
2022/05/12 13:45:58;;;;;;;;;;;;;;;;;;5030874;28;20226;-67
2022/05/12 13:48:24;;;;;;;;;;;;;;;;;;5018998;28;19944;-67
2022/05/12 13:50:50;;;;;;;;;;;;;;;;;;5012501;28;20102;-67
2022/05/12 13:53:16;;;;;;;;;;;;;;;;;;5017657;28;19970;-67
2022/05/12 13:55:42;;;;;;;;;;;;;;;;;;5018095;28;19924;-67
2022/05/12 13:58:10;;;;;;;;;;;;;;;;;;5016433;28;19927;-65
2022/05/12 14:00:36;;;;;;;;;;;;;;;;;;5031957;28;19917;-64
2022/05/12 14:03:02;;;;;;;;;;;;;;;;;;5012936;28;20422;-65
2022/05/12 14:05:28;;;;;;;;;;;;;;;;;;5034688;28;19944;-65
2022/05/12 14:07:54;;;;;;;;;;;;;;;;;;5030830;28;20071;-65
2022/05/12 14:10:20;;;;;;;;;;;;;;;;;;5035045;28;19921;-67
2022/05/12 14:21:00;;;;;;;;;;;;;;;;;;5035099;28;19923;-65
2022/05/12 14:23:26;;;;;;;;;;;;;;;;;;5015304;28;19924;-66
2022/05/12 14:25:52;;;;;;;;;;;;;;;;;;5012667;28;19959;-65
2022/05/12 14:28:19;;;;;;;;;;;;;;;;;;5032648;28;19916;-67
2022/05/12 14:30:45;;;;;;;;;;;;;;;;;;5032714;28;19923;-67
2022/05/12 14:33:11;;;;;;;;;;;;;;;;;;5017037;28;20023;-67
2022/05/12 14:35:38;;;;;;;;;;;;;;;;;;5030787;28;19921;-66
2022/05/12 14:38:04;;;;;;;;;;;;;;;;;;5010012;28;19920;-67
2022/05/12 14:40:30;;;;;;;;;;;;;;;;;;5031851;28;19916;-66
2022/05/12 14:42:56;;;;;;;;;;;;;;;;;;5028345;28;19921;-67
2022/05/12 14:45:22;;;;;;;;;;;;;;;;;;5033333;28;19921;-67
2022/05/12 14:47:48;;;;;;;;;;;;;;;;;;5031448;28;20355;-65
2022/05/12 14:50:16;;;;;;;;;;;;;;;;;;5013571;28;19924;-66
2022/05/12 14:52:42;;;;;;;;;;;;;;;;;;5009870;28;19921;-66
2022/05/12 14:55:11;;;;;;;;;;;;;;;;;;5007131;28;19920;-65
2022/05/12 14:57:37;;;;;;;;;;;;;;;;;;5026872;28;19924;-65
2022/05/12 15:00:03;;;;;;;;;;;;;;;;;;5027302;28;19920;-67
2022/05/12 15:02:29;;;;;;;;;;;;;;;;;;5033108;28;20254;-66
2022/05/12 15:04:55;;;;;;;;;;;;;;;;;;5029295;28;20417;-65
2022/05/12 15:07:21;;;;;;;;;;;;;;;;;;5032066;28;20763;-65
2022/05/12 15:09:47;;;;;;;;;;;;;;;;;;5024671;28;19921;-66
2022/05/12 15:12:13;;;;;;;;;;;;;;;;;;5032358;28;19998;-66
2022/05/12 15:14:39;;;;;;;;;;;;;;;;;;5034402;28;20441;-66
2022/05/12 15:17:05;;;;;;;;;;;;;;;;;;5029205;28;19917;-66
2022/05/12 15:19:31;;;;;;;;;;;;;;;;;;5034142;28;20670;-65
2022/05/12 15:22:01;;;;;;;;;;;;;;;;;;5032746;28;20055;-64
2022/05/12 15:24:27;;;;;;;;;;;;;;;;;;5015237;28;19917;-65
2022/05/12 15:26:53;;;;;;;;;;;;;;;;;;5017223;28;19943;-65
2022/05/12 15:29:19;;;;;;;;;;;;;;;;;;5028840;28;19970;-64
2022/05/12 15:31:45;;;;;;;;;;;;;;;;;;5027968;28;19917;-65
2022/05/12 15:34:14;;;;;;;;;;;;;;;;;;5015128;28;20321;-64
2022/05/12 15:36:40;;;;;;;;;;;;;;;;;;5009891;28;19927;-65
2022/05/12 15:39:06;;;;;;;;;;;;;;;;;;5033962;28;19917;-66
2022/05/12 15:41:32;;;;;;;;;;;;;;;;;;5023692;28;19901;-66
2022/05/12 15:43:58;;;;;;;;;;;;;;;;;;5013669;28;19961;-66
2022/05/12 15:46:24;;;;;;;;;;;;;;;;;;5033663;28;20355;-65
2022/05/12 15:48:50;;;;;;;;;;;;;;;;;;5028677;28;19955;-65
2022/05/12 15:51:16;;;;;;;;;;;;;;;;;;5029052;28;19921;-69
2022/05/12 15:53:42;;;;;;;;;;;;;;;;;;5015691;28;19974;-66
2022/05/12 15:56:08;;;;;;;;;;;;;;;;;;5012509;28;19917;-66
2022/05/12 15:58:34;;;;;;;;;;;;;;;;;;5038303;28;20387;-67
2022/05/12 16:01:00;;;;;;;;;;;;;;;;;;5035946;28;20036;-65
2022/05/12 16:03:26;;;;;;;;;;;;;;;;;;5036470;28;20438;-67
2022/05/12 16:05:52;;;;;;;;;;;;;;;;;;5017161;28;20312;-67
2022/05/12 16:08:18;;;;;;;;;;;;;;;;;;5036220;28;20508;-65
2022/05/12 16:10:44;;;;;;;;;;;;;;;;;;5034595;28;20212;-65
2022/05/12 16:13:10;;;;;;;;;;;;;;;;;;5040643;28;19951;-65
2022/05/12 16:15:36;;;;;;;;;;;;;;;;;;5032714;28;20044;-65
2022/05/12 16:18:02;;;;;;;;;;;;;;;;;;5030793;28;20626;-65
2022/05/12 16:20:29;;;;;;;;;;;;;;;;;;5040144;28;19940;-65
2022/05/12 16:22:55;;;;;;;;;;;;;;;;;;5031989;28;20087;-65
2022/05/12 16:25:24;;;;;;;;;;;;;;;;;;5039557;28;20277;-65
2022/05/12 16:27:50;;;;;;;;;;;;;;;;;;5034460;28;20604;-66
2022/05/12 16:30:17;;;;;;;;;;;;;;;;;;5034393;28;19935;-66
2022/05/12 16:32:43;;;;;;;;;;;;;;;;;;5018302;28;19917;-66
2022/05/12 16:35:10;;;;;;;;;;;;;;;;;;5032545;28;20561;-67
2022/05/12 16:37:35;;;;;;;;;;;;;;;;;;5037621;28;19927;-66
2022/05/12 16:40:01;;;;;;;;;;;;;;;;;;5034332;28;19970;-65
2022/05/12 16:42:27;;;;;;;;;;;;;;;;;;5035985;28;19926;-65
2022/05/12 16:44:53;;;;;;;;;;;;;;;;;;5032538;28;19916;-65
2022/05/12 16:47:19;;;;;;;;;;;;;;;;;;5039123;28;20405;-66
2022/05/12 16:49:46;;;;;;;;;;;;;;;;;;5031014;28;19917;-65
2022/05/12 16:52:12;;;;;;;;;;;;;;;;;;5034934;28;20143;-65
2022/05/12 16:54:40;;;;;;;;;;;;;;;;;;5033855;28;20341;-66
2022/05/12 16:57:06;;;;;;;;;;;;;;;;;;5033727;28;19921;-65
2022/05/12 16:59:32;;;;;;;;;;;;;;;;;;5015974;28;20700;-66
2022/05/12 17:01:58;;;;;;;;;;;;;;;;;;5029469;28;20363;-66
2022/05/12 17:04:24;;;;;;;;;;;;;;;;;;5031962;28;20477;-66
2022/05/12 17:06:50;;;;;;;;;;;;;;;;;;5035811;28;19920;-66
2022/05/12 17:09:16;;;;;;;;;;;;;;;;;;5030212;28;19998;-66
2022/05/12 17:11:42;;;;;;;;;;;;;;;;;;5016503;28;19916;-66